createdAt,value
2022-08-09T00:00:04.335Z,95430.81
2022-08-09T00:02:34.943Z,95430.91
2022-08-09T00:06:19.253Z,95435.09
2022-08-09T00:07:54.390Z,95363.31
2022-08-09T00:10:24.620Z,95278.41
2022-08-09T00:12:53.443Z,95438.94
2022-08-09T00:15:26.677Z,95447.03
2022-08-09T00:18:12.357Z,95447.66
2022-08-09T00:20:50.421Z,95439.84
2022-08-09T00:23:55.721Z,95354.94
2022-08-09T00:26:07.571Z,95436.44
2022-08-09T00:28:36.923Z,95448.34
2022-08-09T00:31:09.106Z,95380.69
2022-08-09T00:33:54.717Z,95451.94
2022-08-09T00:36:27.217Z,95223.03
2022-08-09T00:38:58.865Z,95449.16
2022-08-09T00:44:15.995Z,95450.69
2022-08-09T00:44:25.405Z,95449.09
2022-08-09T00:47:05.163Z,95451.00
2022-08-09T00:49:36.575Z,95452.03
2022-08-09T00:52:17.352Z,95450.81
2022-08-09T00:54:45.957Z,95451.28
2022-08-09T00:57:14.494Z,95458.41
2022-08-09T01:00:03.021Z,95412.31
2022-08-09T01:02:50.847Z,95462.41
2022-08-09T01:05:51.690Z,95463.66
2022-08-09T01:08:27.035Z,95470.38
2022-08-09T01:11:01.895Z,95464.13
2022-08-09T01:13:53.254Z,95471.97
2022-08-09T01:16:30.813Z,95474.75
2022-08-09T01:19:04.887Z,95472.78
2022-08-09T01:21:53.801Z,95452.00
2022-08-09T01:24:36.749Z,95470.38
2022-08-09T01:27:11.409Z,95459.81
2022-08-09T01:29:54.937Z,95454.66
2022-08-09T01:32:36.015Z,95411.16
2022-08-09T01:35:28.513Z,95404.44
2022-08-09T01:38:08.329Z,95448.22
2022-08-09T01:40:42.515Z,95436.88
2022-08-09T01:43:12.709Z,95431.38
2022-08-09T01:45:46.437Z,95340.53
2022-08-09T01:48:17.565Z,95434.75
2022-08-09T01:50:55.043Z,95309.63
2022-08-09T01:53:28.930Z,95335.72
2022-08-09T01:55:58.599Z,95429.91
2022-08-09T01:58:31.064Z,95290.72
2022-08-09T02:01:01.247Z,95431.75
2022-08-09T02:03:32.614Z,95433.63
2022-08-09T02:06:07.269Z,95432.41
2022-08-09T02:08:57.451Z,95430.00
2022-08-09T02:11:42.701Z,95429.59
2022-08-09T02:14:25.530Z,95423.44
2022-08-09T02:17:00.109Z,95432.59
2022-08-09T02:19:44.430Z,95296.22
2022-08-09T02:22:31.750Z,95406.47
2022-08-09T02:25:08.410Z,95420.50
2022-08-09T02:27:57.786Z,95338.47
2022-08-09T02:30:30.413Z,95401.03
2022-08-09T02:33:01.207Z,95389.78
2022-08-09T02:36:01.093Z,95033.91
2022-08-09T02:38:28.830Z,95434.19
2022-08-09T02:41:03.246Z,95433.91
2022-08-09T02:43:53.553Z,95433.88
2022-08-09T02:46:28.468Z,95440.59
2022-08-09T02:48:59.529Z,95433.53
2022-08-09T02:51:37.125Z,95434.72
2022-08-09T02:54:14.092Z,95308.34
2022-08-09T02:56:51.130Z,95297.38
2022-08-09T02:59:26.382Z,95443.75
2022-08-09T03:02:11.888Z,95423.34
2022-08-09T03:04:50.863Z,95404.56
2022-08-09T03:07:20.455Z,95424.88
2022-08-09T03:09:54.442Z,95349.34
2022-08-09T03:12:27.375Z,95436.94
2022-08-09T03:14:56.302Z,95356.00
2022-08-09T03:17:27.598Z,95388.88
2022-08-09T03:20:03.666Z,95442.09
2022-08-09T03:22:42.012Z,95372.44
2022-08-09T03:25:26.397Z,95445.97
2022-08-09T03:28:02.939Z,95452.28
2022-08-09T03:30:34.244Z,95415.53
2022-08-09T03:33:16.918Z,95395.94
2022-08-09T03:36:13.446Z,95408.88
2022-08-09T03:38:41.966Z,95455.47
2022-08-09T03:41:15.103Z,95455.50
2022-08-09T03:43:51.778Z,95458.25
2022-08-09T03:46:32.948Z,95454.69
2022-08-09T03:49:08.870Z,95389.69
2022-08-09T03:51:44.017Z,95465.69
2022-08-09T03:54:29.251Z,95453.94
2022-08-09T03:56:58.555Z,95460.25
2022-08-09T03:59:43.080Z,95464.53
2022-08-09T04:02:14.996Z,95459.81
2022-08-09T04:04:49.448Z,95438.31
2022-08-09T04:07:19.190Z,95273.88
2022-08-09T04:09:52.874Z,95467.31
2022-08-09T04:12:44.561Z,95263.72
2022-08-09T04:15:17.225Z,95464.91
2022-08-09T04:17:57.958Z,95457.78
2022-08-09T04:20:27.356Z,95461.72
2022-08-09T04:22:57.027Z,95462.84
2022-08-09T04:25:27.280Z,95467.84
2022-08-09T04:28:00.065Z,95468.56
2022-08-09T04:30:31.738Z,95473.19
2022-08-09T04:33:01.877Z,95480.97
2022-08-09T04:35:32.944Z,95472.78
2022-08-09T04:38:03.504Z,95455.94
2022-08-09T04:40:46.102Z,95469.97
2022-08-09T04:43:14.166Z,95443.22
2022-08-09T04:45:53.486Z,95478.50
2022-08-09T04:48:23.832Z,95486.97
2022-08-09T04:51:02.970Z,95458.78
2022-08-09T04:53:31.307Z,95488.03
2022-08-09T04:56:00.073Z,95422.38
2022-08-09T04:58:29.062Z,95501.13
2022-08-09T05:01:00.121Z,95489.22
2022-08-09T05:03:40.169Z,95438.53
2022-08-09T05:06:25.863Z,95494.88
2022-08-09T05:09:00.431Z,95468.28
2022-08-09T05:11:32.338Z,95495.56
2022-08-09T05:14:06.121Z,95463.06
2022-08-09T05:16:58.341Z,95423.88
2022-08-09T05:19:25.903Z,95484.44
2022-08-09T05:21:56.554Z,95509.53
2022-08-09T05:24:25.039Z,95507.69
2022-08-09T05:26:53.455Z,95488.16
2022-08-09T05:29:24.114Z,95492.63
2022-08-09T05:31:58.490Z,95508.50
2022-08-09T05:34:30.900Z,95508.72
2022-08-09T05:37:05.992Z,95509.13
2022-08-09T05:39:43.128Z,95518.34
2022-08-09T05:42:17.965Z,95472.84
2022-08-09T05:44:51.487Z,95498.91
2022-08-09T05:47:21.385Z,95516.09
2022-08-09T05:50:30.447Z,95490.22
2022-08-09T05:52:41.726Z,95509.09
2022-08-09T05:55:18.160Z,95486.81
2022-08-09T05:57:51.280Z,95509.19
2022-08-09T06:00:25.833Z,95503.19
2022-08-09T06:02:56.888Z,95503.44
2022-08-09T06:05:30.753Z,95474.91
2022-08-09T06:08:19.780Z,95509.56
2022-08-09T06:10:53.326Z,95505.38
2022-08-09T06:13:21.507Z,95484.19
2022-08-09T06:15:51.367Z,95505.53
2022-08-09T06:18:25.209Z,95507.69
2022-08-09T06:20:57.167Z,95502.75
2022-08-09T06:23:58.382Z,95507.47
2022-08-09T06:26:20.464Z,95516.47
2022-08-09T06:29:00.105Z,95503.75
2022-08-09T06:31:39.370Z,95512.56
2022-08-09T06:34:22.670Z,95498.88
2022-08-09T06:36:59.456Z,95502.78
2022-08-09T06:39:48.689Z,95507.97
2022-08-09T06:42:19.843Z,95505.97
2022-08-09T06:44:54.053Z,95470.31
2022-08-09T06:47:23.712Z,95478.97
2022-08-09T06:50:14.574Z,95498.69
2022-08-09T06:52:46.869Z,95505.81
2022-08-09T06:55:17.885Z,95490.91
2022-08-09T06:58:03.308Z,95498.09
2022-08-09T07:00:57.134Z,95504.41
2022-08-09T07:03:28.120Z,95505.78
2022-08-09T07:06:02.474Z,95501.41
2022-08-09T07:08:32.591Z,95498.66
2022-08-09T07:11:03.604Z,95496.06
2022-08-09T07:13:45.190Z,95498.06
2022-08-09T07:16:41.446Z,95400.38
2022-08-09T07:19:10.693Z,95494.69
2022-08-09T07:21:55.503Z,95464.31
2022-08-09T07:24:32.172Z,95496.06
2022-08-09T07:27:33.126Z,95495.44
2022-08-09T07:29:59.968Z,95477.72
2022-08-09T07:32:32.662Z,95491.63
2022-08-09T07:35:08.096Z,95453.41
2022-08-09T07:37:42.848Z,95487.94
2022-08-09T07:40:16.996Z,95485.50
2022-08-09T07:42:56.020Z,95490.88
2022-08-09T07:45:37.488Z,95487.47
2022-08-09T07:48:07.014Z,95499.03
2022-08-09T07:50:36.820Z,95490.03
2022-08-09T07:53:05.424Z,95495.28
2022-08-09T07:55:41.520Z,95456.09
2022-08-09T07:58:26.232Z,95486.50
2022-08-09T08:00:58.682Z,95492.13
2022-08-09T08:03:36.994Z,95491.16
2022-08-09T08:06:05.349Z,95485.72
2022-08-09T08:08:59.641Z,95483.81
2022-08-09T08:12:11.583Z,95483.22
2022-08-09T08:14:11.331Z,95479.25
2022-08-09T08:16:39.785Z,95459.31
2022-08-09T08:19:31.106Z,95467.19
2022-08-09T08:21:59.539Z,95467.41
2022-08-09T08:24:35.188Z,95466.00
2022-08-09T08:27:17.089Z,95467.66
2022-08-09T08:29:50.215Z,95453.19
2022-08-09T08:32:29.091Z,95470.88
2022-08-09T08:34:58.877Z,95436.19
2022-08-09T08:37:41.069Z,95453.69
2022-08-09T08:40:16.623Z,95450.19
2022-08-09T08:42:47.608Z,95444.88
2022-08-09T08:45:36.966Z,95450.75
2022-08-09T08:48:06.915Z,95436.69
2022-08-09T08:50:38.666Z,95432.22
2022-08-09T08:53:15.815Z,95445.53
2022-08-09T08:55:52.642Z,95442.13
2022-08-09T08:58:27.181Z,95445.59
2022-08-09T09:00:58.363Z,95454.50
2022-08-09T09:03:37.603Z,95390.06
2022-08-09T09:06:09.541Z,95377.00
2022-08-09T09:08:40.854Z,95413.78
2022-08-09T09:11:17.408Z,95429.31
2022-08-09T09:13:56.671Z,95425.47
2022-08-09T09:16:30.721Z,95411.69
2022-08-09T09:19:37.788Z,95420.28
2022-08-09T09:22:05.480Z,95416.66
2022-08-09T09:24:38.899Z,95380.53
2022-08-09T09:27:11.765Z,95416.72
2022-08-09T09:30:11.991Z,95365.19
2022-08-09T09:33:02.989Z,95399.84
2022-08-09T09:36:00.815Z,95408.06
2022-08-09T09:38:45.640Z,95410.16
2022-08-09T09:41:27.970Z,95374.47
2022-08-09T09:44:10.641Z,95403.00
2022-08-09T09:46:45.945Z,95410.66
2022-08-09T09:49:56.337Z,95407.19
2022-08-09T09:52:35.821Z,95401.47
2022-08-09T09:55:28.337Z,95400.16
2022-08-09T09:58:04.102Z,95384.78
2022-08-09T10:00:53.895Z,95400.63
2022-08-09T10:03:40.415Z,95394.19
2022-08-09T10:06:13.077Z,95376.16
2022-08-09T10:08:54.515Z,95389.78
2022-08-09T10:12:00.427Z,95389.66
2022-08-09T10:14:33.953Z,95377.66
2022-08-09T10:17:39.700Z,95378.81
2022-08-09T10:19:59.923Z,95318.50
2022-08-09T10:22:41.062Z,95381.66
2022-08-09T10:25:14.245Z,95389.25
2022-08-09T10:27:56.002Z,95353.28
2022-08-09T10:34:08.074Z,95378.19
2022-08-09T10:36:04.992Z,95379.84
2022-08-09T10:38:57.308Z,95373.66
2022-08-09T10:41:23.946Z,95387.63
2022-08-09T10:44:01.168Z,95373.41
2022-08-09T10:46:57.604Z,95376.44
2022-08-09T10:49:50.441Z,95373.38
2022-08-09T10:52:36.587Z,95372.44
2022-08-09T10:55:24.946Z,95364.84
2022-08-09T10:57:55.974Z,95369.44
2022-08-09T11:00:37.169Z,95364.00
2022-08-09T11:03:51.331Z,95357.41
2022-08-09T11:06:20.953Z,95369.69
2022-08-09T11:08:53.251Z,95371.53
2022-08-09T11:11:24.401Z,95351.38
2022-08-09T11:14:28.061Z,95367.81
2022-08-09T11:16:56.813Z,95359.91
2022-08-09T11:20:11.909Z,95333.56
2022-08-09T11:23:07.200Z,95356.25
2022-08-09T11:25:49.446Z,95364.44
2022-08-09T11:28:56.010Z,95367.63
2022-08-09T11:31:50.072Z,95357.41
2022-08-09T11:34:26.201Z,95359.69
2022-08-09T11:36:56.694Z,95353.72
2022-08-09T11:39:25.812Z,95298.38
2022-08-09T11:42:10.652Z,95344.03
2022-08-09T11:44:57.351Z,95342.34
2022-08-09T11:47:45.529Z,95309.25
2022-08-09T11:50:55.787Z,95341.16
2022-08-09T11:53:59.857Z,95341.91
2022-08-09T11:56:34.459Z,95339.34
2022-08-09T11:59:29.893Z,95339.31
2022-08-09T12:02:17.022Z,95295.25
2022-08-09T12:04:47.283Z,95318.47
2022-08-09T12:07:15.992Z,95336.75
2022-08-09T12:09:50.553Z,95337.06
2022-08-09T12:12:20.212Z,95245.28
2022-08-09T12:15:07.302Z,95330.31
2022-08-09T12:17:42.205Z,95336.06
2022-08-09T12:20:16.749Z,95320.16
2022-08-09T12:22:51.047Z,95311.28
2022-08-09T12:25:35.969Z,95328.16
2022-08-09T12:29:15.410Z,95184.41
2022-08-09T12:31:00.899Z,95311.69
2022-08-09T12:33:50.946Z,95301.53
2022-08-09T12:36:31.445Z,95297.50
2022-08-09T12:39:01.662Z,95266.47
2022-08-09T12:41:38.204Z,95307.47
2022-08-09T12:44:10.205Z,95227.47
2022-08-09T12:46:49.067Z,95276.94
2022-08-09T12:49:21.486Z,95219.53
2022-08-09T12:52:01.502Z,95250.97
2022-08-09T12:55:03.112Z,95210.63
2022-08-09T12:57:39.832Z,95231.84
2022-08-09T13:00:25.134Z,95228.19
2022-08-09T13:02:57.306Z,95263.59
2022-08-09T13:05:35.453Z,95254.25
2022-08-09T13:08:21.110Z,95261.50
2022-08-09T13:11:13.197Z,95256.75
2022-08-09T13:14:43.836Z,95262.34
2022-08-09T13:16:48.329Z,95258.72
2022-08-09T13:20:07.134Z,95265.13
2022-08-09T13:23:00.689Z,95265.38
2022-08-09T13:25:12.083Z,95268.44
2022-08-09T13:27:55.100Z,95272.53
2022-08-09T13:30:48.706Z,95250.25
2022-08-09T13:33:22.549Z,95171.09
2022-08-09T13:36:38.658Z,95270.06
2022-08-09T13:38:55.996Z,95222.81
2022-08-09T13:41:57.930Z,95273.59
2022-08-09T13:44:17.068Z,95199.75
2022-08-09T13:47:26.788Z,95269.25
2022-08-09T13:49:39.842Z,95273.31
2022-08-09T13:52:22.573Z,95239.06
2022-08-09T13:54:59.780Z,95170.34
2022-08-09T13:57:35.780Z,95168.91
2022-08-09T14:00:12.110Z,95223.22
2022-08-09T14:03:04.082Z,95268.00
2022-08-09T14:05:58.860Z,95265.47
2022-08-09T14:08:21.178Z,95265.91
2022-08-09T14:10:53.105Z,95189.47
2022-08-09T14:13:27.907Z,95274.84
2022-08-09T14:16:14.632Z,95199.63
2022-08-09T14:18:46.059Z,95252.22
2022-08-09T14:21:20.534Z,95259.81
2022-08-09T14:23:54.576Z,95252.22
2022-08-09T14:26:31.729Z,95259.03
2022-08-09T14:29:01.272Z,95246.81
2022-08-09T14:31:49.883Z,95241.88
2022-08-09T14:34:32.293Z,95243.56
2022-08-09T14:37:06.638Z,95246.97
2022-08-09T14:39:46.183Z,95243.53
2022-08-09T14:42:40.720Z,95244.28
2022-08-09T14:46:39.116Z,95242.44
2022-08-09T14:47:56.961Z,95237.03
2022-08-09T14:50:26.173Z,95224.31
2022-08-09T14:52:55.030Z,95230.53
2022-08-09T14:55:23.016Z,95240.16
2022-08-09T14:57:52.306Z,95232.59
2022-08-09T15:00:22.291Z,95234.44
2022-08-09T15:02:51.746Z,95225.78
2022-08-09T15:05:20.256Z,95232.56
2022-08-09T15:07:54.951Z,95218.97
2022-08-09T15:10:25.458Z,95221.00
2022-08-09T15:12:55.514Z,95140.81
2022-08-09T15:15:28.448Z,95217.28
2022-08-09T15:17:58.522Z,95221.59
2022-08-09T15:21:57.883Z,95214.16
2022-08-09T15:24:02.370Z,95216.34
2022-08-09T15:26:05.088Z,95226.25
2022-08-09T15:28:54.720Z,95223.19
2022-08-09T15:31:28.601Z,95218.97
2022-08-09T15:34:33.038Z,95219.44
2022-08-09T15:36:59.350Z,95217.56
2022-08-09T15:39:43.838Z,95174.84
2022-08-09T15:42:15.195Z,95105.19
2022-08-09T15:44:48.152Z,95217.88
2022-08-09T15:47:22.452Z,95216.31
2022-08-09T15:50:04.131Z,95215.09
2022-08-09T15:52:33.930Z,95227.31
2022-08-09T15:55:02.242Z,95238.53
2022-08-09T15:57:34.948Z,95221.16
2022-08-09T16:00:25.439Z,95107.22
2022-08-09T16:02:56.160Z,95201.84
2022-08-09T16:05:47.412Z,95231.63
2022-08-09T16:08:29.829Z,95216.31
2022-08-09T16:10:58.303Z,95219.41
2022-08-09T16:14:04.617Z,95224.97
2022-08-09T16:16:18.700Z,95231.47
2022-08-09T16:18:47.067Z,95233.88
2022-08-09T16:21:17.835Z,95227.03
2022-08-09T16:23:55.462Z,95226.72
2022-08-09T16:26:34.729Z,95220.75
2022-08-09T16:29:11.264Z,95221.59
2022-08-09T16:32:18.206Z,95237.22
2022-08-09T16:34:55.494Z,95236.53
2022-08-09T16:37:20.177Z,95232.97
2022-08-09T16:40:09.926Z,95233.78
2022-08-09T16:42:38.642Z,95240.34
2022-08-09T16:45:13.774Z,95240.88
2022-08-09T16:48:38.343Z,95235.00
2022-08-09T16:50:34.161Z,95231.16
2022-08-09T16:53:02.501Z,95239.25
2022-08-09T16:55:58.450Z,95202.44
2022-08-09T16:58:20.931Z,95198.56
2022-08-09T17:00:51.529Z,95220.19
2022-08-09T17:03:22.844Z,95235.78
2022-08-09T17:06:08.590Z,95251.41
2022-08-09T17:09:02.871Z,95265.94
2022-08-09T17:11:41.104Z,95263.09
2022-08-09T17:14:26.430Z,95274.31
2022-08-09T17:17:01.482Z,95240.53
2022-08-09T17:19:47.558Z,95285.28
2022-08-09T17:22:35.699Z,95281.72
2022-08-09T17:25:10.343Z,95285.72
2022-08-09T17:27:49.280Z,95296.53
2022-08-09T17:30:22.651Z,95310.97
2022-08-09T17:32:54.675Z,95283.66
2022-08-09T17:35:27.117Z,95300.44
2022-08-09T17:38:02.220Z,95315.66
2022-08-09T17:40:42.879Z,95243.19
2022-08-09T17:43:33.997Z,95317.84
2022-08-09T17:46:06.148Z,95283.91
2022-08-09T17:48:38.471Z,95322.63
2022-08-09T17:51:18.150Z,95332.25
2022-08-09T17:53:52.648Z,95240.09
2022-08-09T17:56:27.717Z,95333.00
2022-08-09T17:59:02.978Z,95310.91
2022-08-09T18:02:03.899Z,95346.66
2022-08-09T18:04:20.624Z,95350.38
2022-08-09T18:06:54.105Z,95350.19
2022-08-09T18:09:25.201Z,95358.69
2022-08-09T18:12:18.165Z,95357.59
2022-08-09T18:14:53.750Z,95362.09
2022-08-09T18:18:02.959Z,95369.44
2022-08-09T18:20:55.300Z,95373.41
2022-08-09T18:23:05.371Z,95378.78
2022-08-09T18:25:50.735Z,95362.03
2022-08-09T18:30:41.357Z,95155.13
2022-08-09T18:31:11.510Z,95388.25
2022-08-09T18:33:40.059Z,95392.47
2022-08-09T18:36:09.065Z,95393.44
2022-08-09T18:39:00.298Z,95395.06
2022-08-09T18:41:29.088Z,95389.38
2022-08-09T18:44:03.042Z,95393.31
2022-08-09T18:46:46.671Z,95393.78
2022-08-09T18:49:20.141Z,95406.75
2022-08-09T18:51:57.762Z,95406.31
2022-08-09T18:54:30.143Z,95408.28
2022-08-09T18:57:05.752Z,95407.59
2022-08-09T18:59:48.715Z,95407.34
2022-08-09T19:02:20.067Z,95412.25
2022-08-09T19:05:04.085Z,95420.19
2022-08-09T19:07:36.395Z,95416.31
2022-08-09T19:10:13.927Z,95396.41
2022-08-09T19:12:45.520Z,95416.31
2022-08-09T19:15:27.758Z,95408.44
2022-08-09T19:17:58.596Z,95387.16
2022-08-09T19:20:34.294Z,95418.19
2022-08-09T19:23:02.632Z,95418.03
2022-08-09T19:25:41.896Z,95392.53
2022-08-09T19:28:28.621Z,95429.25
2022-08-09T19:30:57.148Z,95377.78
2022-08-09T19:33:25.118Z,95421.13
2022-08-09T19:35:56.847Z,95336.22
2022-08-09T19:38:25.798Z,95431.81
2022-08-09T19:40:59.801Z,95430.34
2022-08-09T19:44:01.304Z,95424.38
2022-08-09T19:46:34.152Z,95429.41
2022-08-09T19:50:10.201Z,95385.63
2022-08-09T19:51:55.677Z,95416.97
2022-08-09T19:54:25.031Z,95389.00
2022-08-09T19:56:54.695Z,95356.41
2022-08-09T19:59:57.564Z,95419.38
2022-08-09T20:04:06.866Z,95416.38
2022-08-09T20:05:01.224Z,95414.09
2022-08-09T20:07:57.095Z,95413.59
2022-08-09T20:10:22.185Z,95414.38
2022-08-09T20:12:52.135Z,95416.84
2022-08-09T20:16:36.616Z,95418.09
2022-08-09T20:18:10.397Z,95390.84
2022-08-09T20:20:40.285Z,95415.78
2022-08-09T20:23:09.386Z,95420.41
2022-08-09T20:25:51.585Z,95410.25
2022-08-09T20:28:28.159Z,95411.09
2022-08-09T20:31:04.500Z,95367.72
2022-08-09T20:33:40.853Z,95404.81
2022-08-09T20:36:12.463Z,95339.13
2022-08-09T20:41:34.792Z,95389.22
2022-08-09T20:44:10.429Z,95422.19
2022-08-09T20:46:42.971Z,95396.31
2022-08-09T20:49:13.713Z,95433.13
2022-08-09T20:51:42.547Z,95436.44
2022-08-09T20:54:16.601Z,95446.19
2022-08-09T20:56:47.049Z,95321.94
2022-08-09T20:59:24.947Z,95459.47
2022-08-09T21:02:06.787Z,95454.03
2022-08-09T21:05:53.796Z,95460.66
2022-08-09T21:07:30.016Z,95454.31
2022-08-09T21:10:07.465Z,95458.13
2022-08-09T21:12:38.558Z,95454.72
2022-08-09T21:15:12.467Z,95462.38
2022-08-09T21:18:20.930Z,95422.53
2022-08-09T21:20:30.352Z,95466.19
2022-08-09T21:22:59.342Z,95472.69
2022-08-09T21:25:55.950Z,95467.56
2022-08-09T21:28:34.377Z,95479.59
2022-08-09T21:31:13.575Z,95463.59
2022-08-09T21:33:50.384Z,94987.53
2022-08-09T21:36:20.202Z,95420.22
2022-08-09T21:38:50.905Z,95459.41
2022-08-09T21:41:25.571Z,95332.56
2022-08-09T21:44:15.244Z,95330.16
2022-08-09T21:47:01.976Z,95458.72
2022-08-09T21:49:40.633Z,95443.06
2022-08-09T21:52:14.791Z,95377.50
2022-08-09T21:54:51.132Z,95459.34
2022-08-09T21:57:38.228Z,95425.56
2022-08-09T22:00:25.306Z,95457.72
2022-08-09T22:02:58.279Z,95452.22
2022-08-09T22:05:37.687Z,95447.91
2022-08-09T22:08:14.758Z,95407.84
2022-08-09T22:11:00.602Z,95451.44
2022-08-09T22:13:34.227Z,95447.00
2022-08-09T22:16:03.748Z,95413.38
2022-08-09T22:18:33.263Z,95435.88
2022-08-09T22:21:01.291Z,95437.38
2022-08-09T22:23:35.680Z,95437.91
2022-08-09T22:26:23.315Z,95434.72
2022-08-09T22:29:07.090Z,95441.06
2022-08-09T22:31:35.879Z,95323.47
2022-08-09T22:34:09.903Z,95228.28
2022-08-09T22:36:46.108Z,95442.69
2022-08-09T22:39:46.622Z,95402.84
2022-08-09T22:42:03.978Z,95440.81
2022-08-09T22:44:45.649Z,95400.25
2022-08-09T22:48:10.694Z,95418.75
2022-08-09T22:50:03.111Z,95436.38
2022-08-09T22:52:31.012Z,95439.56
2022-08-09T22:55:00.086Z,95440.31
2022-08-09T22:57:31.642Z,95434.41
2022-08-09T23:00:05.799Z,95435.22
2022-08-09T23:02:34.135Z,95386.53
2022-08-09T23:05:05.945Z,95433.03
2022-08-09T23:08:29.103Z,95429.47
2022-08-09T23:10:43.675Z,95340.88
2022-08-09T23:13:12.887Z,95432.19
2022-08-09T23:15:41.654Z,95311.75
2022-08-09T23:18:09.609Z,95441.31
2022-08-09T23:20:38.898Z,95394.84
2022-08-09T23:23:06.829Z,95438.06
2022-08-09T23:25:34.756Z,95434.00
2022-08-09T23:28:15.345Z,95439.06
2022-08-09T23:30:51.641Z,95310.28
2022-08-09T23:33:20.429Z,95428.72
2022-08-09T23:36:06.184Z,95362.16
2022-08-09T23:38:48.216Z,95343.72
2022-08-09T23:41:27.870Z,95423.00
2022-08-09T23:43:58.071Z,95393.06
2022-08-09T23:46:26.027Z,95426.78
2022-08-09T23:48:54.030Z,95328.41
2022-08-09T23:51:23.499Z,95392.03
2022-08-09T23:53:52.603Z,95419.44
2022-08-09T23:56:52.243Z,95364.00
2022-08-09T23:59:11.265Z,95418.69
